createdAt,value
2018-09-02T00:02:01.465Z,34.40
2018-09-02T00:04:29.829Z,34.30
2018-09-02T00:06:58.154Z,34.30
2018-09-02T00:09:26.476Z,34.40
2018-09-02T00:11:54.877Z,34.50
2018-09-02T00:14:23.228Z,34.70
2018-09-02T00:16:51.581Z,34.90
2018-09-02T00:19:19.895Z,34.80
2018-09-02T00:21:48.256Z,34.80
2018-09-02T00:24:16.593Z,34.80
2018-09-02T00:26:45.181Z,35.00
2018-09-02T00:29:13.498Z,35.10
2018-09-02T00:31:41.868Z,35.10
2018-09-02T00:34:10.193Z,35.20
2018-09-02T00:36:38.608Z,35.20
2018-09-02T00:39:09.482Z,35.20
2018-09-02T00:41:39.568Z,35.30
2018-09-02T00:44:08.683Z,35.40
2018-09-02T00:46:37.193Z,35.30
2018-09-02T00:49:06.129Z,35.40
2018-09-02T00:51:34.601Z,35.70
2018-09-02T00:54:03.100Z,35.30
2018-09-02T00:56:31.436Z,35.50
2018-09-02T00:58:59.763Z,35.80
2018-09-02T01:01:28.109Z,35.60
2018-09-02T01:03:56.425Z,35.80
2018-09-02T01:06:25.212Z,35.60
2018-09-02T01:08:53.579Z,35.80
2018-09-02T01:11:21.929Z,35.90
2018-09-02T01:13:50.359Z,35.80
2018-09-02T01:16:18.699Z,36.00
2018-09-02T01:18:47.074Z,36.00
2018-09-02T01:21:15.421Z,35.90
2018-09-02T01:23:43.788Z,36.00
2018-09-02T01:26:12.179Z,36.10
2018-09-02T01:28:40.571Z,36.10
2018-09-02T01:31:09.025Z,36.20
2018-09-02T01:33:37.725Z,36.30
2018-09-02T01:36:07.302Z,36.30
2018-09-02T01:38:35.657Z,36.30
2018-09-02T01:41:04.075Z,36.40
2018-09-02T01:43:39.071Z,36.40
2018-09-02T01:46:07.395Z,36.60
2018-09-02T01:48:35.785Z,36.50
2018-09-02T01:51:04.218Z,36.50
2018-09-02T01:53:32.588Z,37.20
2018-09-02T01:56:00.923Z,36.80
2018-09-02T01:58:29.262Z,36.80
2018-09-02T02:00:57.620Z,36.70
2018-09-02T02:03:26.047Z,36.80
2018-09-02T02:05:54.364Z,36.80
2018-09-02T02:08:22.713Z,36.70
2018-09-02T02:10:51.075Z,36.70
2018-09-02T02:13:19.391Z,36.80
2018-09-02T02:15:47.700Z,36.80
2018-09-02T02:18:16.036Z,36.70
2018-09-02T02:20:44.389Z,36.80
2018-09-02T02:23:12.692Z,36.80
2018-09-02T02:25:41.441Z,36.80
2018-09-02T02:28:09.848Z,37.50
2018-09-02T02:30:38.490Z,36.80
2018-09-02T02:33:06.828Z,36.80
2018-09-02T02:35:35.183Z,37.00
2018-09-02T02:38:03.547Z,36.80
2018-09-02T02:40:31.892Z,37.00
2018-09-02T02:43:00.195Z,36.90
2018-09-02T02:45:28.563Z,37.00
2018-09-02T02:47:56.889Z,36.90
2018-09-02T02:50:25.188Z,36.90
2018-09-02T02:52:58.915Z,37.00
2018-09-02T02:55:27.224Z,37.10
2018-09-02T02:57:55.543Z,37.10
2018-09-02T03:00:23.839Z,37.20
2018-09-02T03:02:52.156Z,37.30
2018-09-02T03:05:20.695Z,37.20
2018-09-02T03:07:49.072Z,37.30
2018-09-02T03:10:17.697Z,37.40
2018-09-02T03:12:46.205Z,37.20
2018-09-02T03:15:14.567Z,37.30
2018-09-02T03:17:42.929Z,37.40
2018-09-02T03:20:11.272Z,37.60
2018-09-02T03:22:39.669Z,37.60
2018-09-02T03:25:08.060Z,37.50
2018-09-02T03:27:36.530Z,37.60
2018-09-02T03:30:05.169Z,37.80
2018-09-02T03:32:33.729Z,37.90
2018-09-02T03:35:02.060Z,37.90
2018-09-02T03:37:30.375Z,38.00
2018-09-02T03:40:05.536Z,37.90
2018-09-02T03:42:33.918Z,37.90
2018-09-02T03:45:02.263Z,37.80
2018-09-02T03:47:30.732Z,37.90
2018-09-02T03:49:59.087Z,37.90
2018-09-02T03:52:27.616Z,37.90
2018-09-02T03:54:55.937Z,37.80
2018-09-02T03:57:24.512Z,38.00
2018-09-02T03:59:52.852Z,38.20
2018-09-02T04:02:21.148Z,38.10
2018-09-02T04:04:49.872Z,38.10
2018-09-02T04:07:18.246Z,38.30
2018-09-02T04:09:46.580Z,38.10
2018-09-02T04:12:14.897Z,38.30
2018-09-02T04:14:43.212Z,38.40
2018-09-02T04:17:11.543Z,38.40
2018-09-02T04:19:39.875Z,38.40
2018-09-02T04:22:08.273Z,38.50
2018-09-02T04:24:36.628Z,38.60
2018-09-02T04:27:05.079Z,38.60
2018-09-02T04:29:33.408Z,38.70
2018-09-02T04:32:02.008Z,38.70
2018-09-02T04:34:30.429Z,38.80
2018-09-02T04:36:58.780Z,38.80
2018-09-02T04:39:27.120Z,38.90
2018-09-02T04:41:55.642Z,38.80
2018-09-02T04:44:24.019Z,38.90
2018-09-02T04:46:52.564Z,39.00
2018-09-02T04:49:20.920Z,39.10
2018-09-02T04:51:49.216Z,39.10
2018-09-02T04:54:17.606Z,39.30
2018-09-02T04:56:45.952Z,39.20
2018-09-02T04:59:14.409Z,39.30
2018-09-02T05:01:43.233Z,39.30
2018-09-02T05:04:11.941Z,39.40
2018-09-02T05:06:41.635Z,39.40
2018-09-02T05:09:10.110Z,39.60
2018-09-02T05:11:38.786Z,39.70
2018-09-02T05:14:07.267Z,39.70
2018-09-02T05:16:35.588Z,39.80
2018-09-02T05:19:03.924Z,40.10
2018-09-02T05:21:32.350Z,40.00
2018-09-02T05:24:00.820Z,40.10
2018-09-02T05:26:29.160Z,40.10
2018-09-02T05:28:57.547Z,40.30
2018-09-02T05:31:25.901Z,40.20
2018-09-02T05:33:54.283Z,40.20
2018-09-02T05:36:22.591Z,40.40
2018-09-02T05:38:51.083Z,40.50
2018-09-02T05:41:19.472Z,40.50
2018-09-02T05:43:48.112Z,40.60
2018-09-02T05:46:16.773Z,40.60
2018-09-02T05:48:45.186Z,40.80
2018-09-02T05:51:13.683Z,40.60
2018-09-02T05:53:42.082Z,40.90
2018-09-02T05:56:10.440Z,40.70
2018-09-02T05:58:38.819Z,40.70
2018-09-02T06:01:07.211Z,40.80
2018-09-02T06:03:35.653Z,40.80
2018-09-02T06:06:04.288Z,40.70
2018-09-02T06:08:32.749Z,40.70
2018-09-02T06:11:01.181Z,40.60
2018-09-02T06:13:29.580Z,40.70
2018-09-02T06:15:57.994Z,40.70
2018-09-02T06:18:26.397Z,40.70
2018-09-02T06:20:54.816Z,40.70
2018-09-02T06:23:23.515Z,40.60
2018-09-02T06:25:51.836Z,40.50
2018-09-02T06:28:20.168Z,40.60
2018-09-02T06:30:48.544Z,40.40
2018-09-02T06:33:16.954Z,40.30
2018-09-02T06:35:45.453Z,40.80
2018-09-02T06:38:13.823Z,40.10
2018-09-02T06:40:42.281Z,40.10
2018-09-02T06:43:10.651Z,40.10
2018-09-02T06:45:39.143Z,40.10
2018-09-02T06:48:07.752Z,40.00
2018-09-02T06:50:36.072Z,39.90
2018-09-02T06:53:04.440Z,40.10
2018-09-02T06:55:32.761Z,40.10
2018-09-02T06:58:01.113Z,40.00
2018-09-02T07:00:29.436Z,40.00
2018-09-02T07:03:04.385Z,40.00
2018-09-02T07:05:36.927Z,40.10
2018-09-02T07:08:05.266Z,40.00
2018-09-02T07:10:33.676Z,40.10
2018-09-02T07:13:02.046Z,40.00
2018-09-02T07:15:30.367Z,39.80
2018-09-02T07:17:58.701Z,39.70
2018-09-02T07:20:27.076Z,39.50
2018-09-02T07:22:55.432Z,39.40
2018-09-02T07:25:23.898Z,39.20
2018-09-02T07:27:52.188Z,39.30
2018-09-02T07:30:20.504Z,39.20
2018-09-02T07:32:48.887Z,39.20
2018-09-02T07:35:17.264Z,39.20
2018-09-02T07:37:45.573Z,39.00
2018-09-02T07:40:14.216Z,39.10
2018-09-02T07:42:42.556Z,39.10
2018-09-02T07:45:11.636Z,39.10
2018-09-02T07:47:40.073Z,39.20
2018-09-02T07:50:08.568Z,39.30
2018-09-02T07:52:36.919Z,39.20
2018-09-02T07:55:06.036Z,39.20
2018-09-02T07:57:34.330Z,39.30
2018-09-02T08:00:02.747Z,39.90
2018-09-02T08:02:31.177Z,39.90
2018-09-02T08:04:59.477Z,39.10
2018-09-02T08:07:27.790Z,39.00
2018-09-02T08:09:56.110Z,38.90
2018-09-02T08:12:24.522Z,38.80
2018-09-02T08:14:52.867Z,38.80
2018-09-02T08:17:21.163Z,38.70
2018-09-02T08:19:49.524Z,38.80
2018-09-02T08:22:17.840Z,39.40
2018-09-02T08:24:46.207Z,38.80
2018-09-02T08:27:14.501Z,38.60
2018-09-02T08:29:43.051Z,38.60
2018-09-02T08:32:11.568Z,38.70
2018-09-02T08:34:40.025Z,38.60
2018-09-02T08:37:08.815Z,38.50
2018-09-02T08:39:37.194Z,39.00
2018-09-02T08:42:05.540Z,38.60
2018-09-02T08:44:33.852Z,37.90
2018-09-02T08:47:02.185Z,37.60
2018-09-02T08:49:30.487Z,37.30
2018-09-02T08:51:58.890Z,37.60
2018-09-02T08:54:27.206Z,36.40
2018-09-02T08:56:55.584Z,35.60
2018-09-02T08:59:24.183Z,35.10
2018-09-02T09:01:52.544Z,34.10
2018-09-02T09:04:21.009Z,32.80
2018-09-02T09:06:50.179Z,31.60
2018-09-02T09:09:18.623Z,30.50
2018-09-02T09:11:46.848Z,29.10
2018-09-02T09:14:15.188Z,28.30
2018-09-02T09:16:43.660Z,27.30
2018-09-02T09:19:12.012Z,26.70
2018-09-02T09:21:40.480Z,26.50
2018-09-02T09:24:09.103Z,26.40
2018-09-02T09:26:37.721Z,26.00
2018-09-02T09:29:06.071Z,25.90
2018-09-02T09:31:34.383Z,25.90
2018-09-02T09:34:02.675Z,25.80
2018-09-02T09:36:31.015Z,26.20
2018-09-02T09:38:59.387Z,26.70
2018-09-02T09:41:27.691Z,27.20
2018-09-02T09:43:55.983Z,27.50
2018-09-02T09:46:24.279Z,27.60
2018-09-02T09:48:52.651Z,27.40
2018-09-02T09:51:21.011Z,27.40
2018-09-02T09:53:49.299Z,27.30
2018-09-02T09:56:17.805Z,26.80
2018-09-02T09:58:46.137Z,26.30
2018-09-02T10:01:14.534Z,26.10
2018-09-02T10:03:42.864Z,26.20
2018-09-02T10:06:11.212Z,26.30
2018-09-02T10:08:39.865Z,26.60
2018-09-02T10:11:08.529Z,26.90
2018-09-02T10:13:36.913Z,27.20
2018-09-02T10:16:05.260Z,27.60
2018-09-02T10:18:33.555Z,27.90
2018-09-02T10:21:01.880Z,28.30
2018-09-02T10:23:30.323Z,28.60
2018-09-02T10:25:58.828Z,29.40
2018-09-02T10:28:27.152Z,29.40
2018-09-02T10:30:55.581Z,29.70
2018-09-02T10:33:23.903Z,30.00
2018-09-02T10:35:52.212Z,30.50
2018-09-02T10:38:20.596Z,31.00
2018-09-02T10:40:48.912Z,31.30
2018-09-02T10:43:17.291Z,31.50
2018-09-02T10:45:45.596Z,32.00
2018-09-02T10:48:14.176Z,32.10
2018-09-02T10:50:42.488Z,32.40
2018-09-02T10:53:11.067Z,32.30
2018-09-02T10:55:39.659Z,32.20
2018-09-02T10:58:08.060Z,31.90
2018-09-02T11:00:36.431Z,31.70
2018-09-02T11:03:05.104Z,31.80
2018-09-02T11:05:33.515Z,31.80
2018-09-02T11:08:01.851Z,31.80
2018-09-02T11:10:30.738Z,32.00
2018-09-02T11:12:59.157Z,32.00
2018-09-02T11:15:27.516Z,32.40
2018-09-02T11:17:55.939Z,32.40
2018-09-02T11:20:24.275Z,32.80
2018-09-02T11:22:52.788Z,32.90
2018-09-02T11:25:21.160Z,33.10
2018-09-02T11:27:49.600Z,33.20
2018-09-02T11:30:17.884Z,33.20
2018-09-02T11:32:46.222Z,33.20
2018-09-02T11:35:14.560Z,33.20
2018-09-02T11:37:42.911Z,33.60
2018-09-02T11:40:11.322Z,33.30
2018-09-02T11:42:39.689Z,33.30
2018-09-02T11:45:08.256Z,33.40
2018-09-02T11:47:36.708Z,33.70
2018-09-02T11:50:05.709Z,33.90
2018-09-02T11:52:34.076Z,34.00
2018-09-02T11:55:02.385Z,34.10
2018-09-02T11:57:30.734Z,34.20
2018-09-02T11:59:59.051Z,34.30
2018-09-02T12:02:27.424Z,34.30
2018-09-02T12:04:55.869Z,34.60
2018-09-02T12:07:24.101Z,34.40
2018-09-02T12:09:52.536Z,34.60
2018-09-02T12:12:20.936Z,34.40
2018-09-02T12:14:49.275Z,34.20
2018-09-02T12:17:17.626Z,34.10
2018-09-02T12:19:45.940Z,33.60
2018-09-02T12:22:14.393Z,33.30
2018-09-02T12:24:42.731Z,32.80
2018-09-02T12:27:11.053Z,32.40
2018-09-02T12:29:39.552Z,32.30
2018-09-02T12:32:07.923Z,32.40
2018-09-02T12:34:36.234Z,33.00
2018-09-02T12:37:04.588Z,32.80
2018-09-02T12:39:33.308Z,33.00
2018-09-02T12:42:01.707Z,33.30
2018-09-02T12:44:30.037Z,33.50
2018-09-02T12:46:58.323Z,33.70
2018-09-02T12:49:26.714Z,33.90
2018-09-02T12:51:55.101Z,34.50
2018-09-02T12:54:23.412Z,34.00
2018-09-02T12:56:51.724Z,34.40
2018-09-02T12:59:20.085Z,34.50
2018-09-02T13:01:48.377Z,34.80
2018-09-02T13:04:16.715Z,35.00
2018-09-02T13:06:45.096Z,35.20
2018-09-02T13:09:13.464Z,35.40
2018-09-02T13:11:41.876Z,35.40
2018-09-02T13:14:10.277Z,35.50
2018-09-02T13:16:38.648Z,35.70
2018-09-02T13:19:07.113Z,35.80
2018-09-02T13:21:35.345Z,35.90
2018-09-02T13:24:03.846Z,36.20
2018-09-02T13:26:32.499Z,36.40
2018-09-02T13:29:01.364Z,36.80
2018-09-02T13:31:30.403Z,36.90
2018-09-02T13:33:58.716Z,37.10
2018-09-02T13:36:27.232Z,37.30
2018-09-02T13:38:55.634Z,37.40
2018-09-02T13:41:23.984Z,37.70
2018-09-02T13:43:52.361Z,38.00
2018-09-02T13:46:20.676Z,38.20
2018-09-02T13:48:48.992Z,38.50
2018-09-02T13:51:17.307Z,38.70
2018-09-02T13:53:45.672Z,39.60
2018-09-02T13:56:14.260Z,39.10
2018-09-02T13:58:42.697Z,39.00
2018-09-02T14:01:11.004Z,39.10
2018-09-02T14:03:39.388Z,39.10
2018-09-02T14:06:07.984Z,38.80
2018-09-02T14:08:36.578Z,39.10
2018-09-02T14:11:05.445Z,39.10
2018-09-02T14:13:33.928Z,39.10
2018-09-02T14:16:02.235Z,39.40
2018-09-02T14:18:30.639Z,39.40
2018-09-02T14:20:58.952Z,39.40
2018-09-02T14:23:27.272Z,39.60
2018-09-02T14:25:55.597Z,39.80
2018-09-02T14:28:24.034Z,40.10
2018-09-02T14:30:52.353Z,40.20
2018-09-02T14:33:20.784Z,40.30
2018-09-02T14:35:49.207Z,40.30
2018-09-02T14:38:17.534Z,40.40
2018-09-02T14:40:45.872Z,40.50
2018-09-02T14:43:14.343Z,40.50
2018-09-02T14:45:42.696Z,40.70
2018-09-02T14:48:11.330Z,40.80
2018-09-02T14:50:39.829Z,40.90
2018-09-02T14:53:08.637Z,40.90
2018-09-02T14:55:37.256Z,40.90
2018-09-02T14:58:05.629Z,40.80
2018-09-02T15:00:33.990Z,40.80
2018-09-02T15:03:02.339Z,40.80
2018-09-02T15:05:30.721Z,40.80
2018-09-02T15:07:59.168Z,40.90
2018-09-02T15:10:27.575Z,41.00
2018-09-02T15:12:55.885Z,41.20
2018-09-02T15:15:24.245Z,41.30
2018-09-02T15:17:53.134Z,41.30
2018-09-02T15:20:21.491Z,41.50
2018-09-02T15:22:49.870Z,41.70
2018-09-02T15:25:18.406Z,41.90
2018-09-02T15:27:46.751Z,42.00
2018-09-02T15:30:15.112Z,42.10
2018-09-02T15:32:43.452Z,42.30
2018-09-02T15:35:11.987Z,42.40
2018-09-02T15:37:40.467Z,42.50
2018-09-02T15:40:09.060Z,42.60
2018-09-02T15:42:37.405Z,42.50
2018-09-02T15:45:05.801Z,42.90
2018-09-02T15:47:34.087Z,42.80
2018-09-02T15:50:02.408Z,42.80
2018-09-02T15:52:30.893Z,43.10
2018-09-02T15:54:59.307Z,43.10
2018-09-02T15:57:27.636Z,43.00
2018-09-02T15:59:55.965Z,43.20
2018-09-02T16:02:24.269Z,43.30
2018-09-02T16:04:52.629Z,43.50
2018-09-02T16:07:25.017Z,43.40
2018-09-02T16:09:53.475Z,43.60
2018-09-02T16:12:21.793Z,43.70
2018-09-02T16:14:50.156Z,43.60
2018-09-02T16:17:18.456Z,43.70
2018-09-02T16:19:46.936Z,43.70
2018-09-02T16:22:15.467Z,43.60
2018-09-02T16:24:43.972Z,43.70
2018-09-02T16:27:12.284Z,43.80
2018-09-02T16:29:40.670Z,43.80
2018-09-02T16:32:09.128Z,43.80
2018-09-02T16:34:37.492Z,43.70
2018-09-02T16:37:07.211Z,43.70
2018-09-02T16:39:35.537Z,43.70
2018-09-02T16:42:04.092Z,43.70
2018-09-02T16:44:32.700Z,43.70
2018-09-02T16:47:01.100Z,43.70
2018-09-02T16:49:29.536Z,43.70
2018-09-02T16:51:57.952Z,43.80
2018-09-02T16:54:26.598Z,43.90
2018-09-02T16:56:54.977Z,44.00
2018-09-02T16:59:23.289Z,44.10
2018-09-02T17:01:51.590Z,44.00
2018-09-02T17:04:20.939Z,44.00
2018-09-02T17:06:49.319Z,44.10
2018-09-02T17:09:17.736Z,44.00
2018-09-02T17:11:46.213Z,44.00
2018-09-02T17:14:14.523Z,44.00
2018-09-02T17:16:44.195Z,44.10
2018-09-02T17:19:16.985Z,44.00
2018-09-02T17:21:45.537Z,44.00
2018-09-02T17:24:13.888Z,44.00
2018-09-02T17:26:42.221Z,44.00
2018-09-02T17:29:10.643Z,43.90
2018-09-02T17:31:39.050Z,44.00
2018-09-02T17:34:07.576Z,44.00
2018-09-02T17:36:35.922Z,43.90
2018-09-02T17:39:05.808Z,43.80
2018-09-02T17:41:34.136Z,43.90
2018-09-02T17:44:02.504Z,43.90
2018-09-02T17:46:31.160Z,43.80
2018-09-02T17:48:59.524Z,43.80
2018-09-02T17:51:27.894Z,43.90
2018-09-02T17:53:56.383Z,43.90
2018-09-02T17:56:24.799Z,43.80
2018-09-02T17:58:53.214Z,43.90
2018-09-02T18:01:21.576Z,43.90
2018-09-02T18:03:49.864Z,44.00
2018-09-02T18:06:18.500Z,44.10
2018-09-02T18:08:46.837Z,44.10
2018-09-02T18:11:15.732Z,44.10
2018-09-02T18:13:44.110Z,44.10
2018-09-02T18:16:13.260Z,44.10
2018-09-02T18:18:41.958Z,44.30
2018-09-02T18:21:11.715Z,44.20
2018-09-02T18:23:40.408Z,44.90
2018-09-02T18:26:08.860Z,44.30
2018-09-02T18:28:40.024Z,44.20
2018-09-02T18:31:08.713Z,44.20
2018-09-02T18:33:37.188Z,44.40
2018-09-02T18:36:05.629Z,44.30
2018-09-02T18:38:34.480Z,44.40
2018-09-02T18:41:02.989Z,44.40
2018-09-02T18:43:31.514Z,44.40
2018-09-02T18:45:59.884Z,44.40
2018-09-02T18:48:28.297Z,44.40
2018-09-02T18:50:57.578Z,44.40
2018-09-02T18:53:26.177Z,44.30
2018-09-02T18:55:55.040Z,44.30
2018-09-02T18:58:23.556Z,44.50
2018-09-02T19:00:51.968Z,44.70
2018-09-02T19:03:20.268Z,44.60
2018-09-02T19:05:48.604Z,44.60
2018-09-02T19:08:17.124Z,44.60
2018-09-02T19:10:45.732Z,44.70
2018-09-02T19:13:14.124Z,44.70
2018-09-02T19:15:47.036Z,44.80
2018-09-02T19:18:15.435Z,45.00
2018-09-02T19:20:43.949Z,45.00
2018-09-02T19:23:12.309Z,45.10
2018-09-02T19:25:40.641Z,45.10
2018-09-02T19:28:09.292Z,45.00
2018-09-02T19:30:37.871Z,45.20
2018-09-02T19:33:06.624Z,45.20
2018-09-02T19:35:35.290Z,45.30
2018-09-02T19:38:03.619Z,45.40
2018-09-02T19:40:31.976Z,45.30
2018-09-02T19:43:00.289Z,46.00
2018-09-02T19:45:28.754Z,45.50
2018-09-02T19:47:57.225Z,45.60
2018-09-02T19:50:25.552Z,45.80
2018-09-02T19:52:53.896Z,45.70
2018-09-02T19:55:22.220Z,45.90
2018-09-02T19:57:50.640Z,45.90
2018-09-02T20:00:20.606Z,45.90
2018-09-02T20:02:48.957Z,45.90
2018-09-02T20:05:17.461Z,45.90
2018-09-02T20:07:45.828Z,46.60
2018-09-02T20:10:14.147Z,46.10
2018-09-02T20:12:42.589Z,46.20
2018-09-02T20:15:11.081Z,46.10
2018-09-02T20:17:39.612Z,46.00
2018-09-02T20:20:08.068Z,46.10
2018-09-02T20:22:36.525Z,46.20
2018-09-02T20:25:06.033Z,46.30
2018-09-02T20:27:34.432Z,46.30
2018-09-02T20:30:02.783Z,46.40
2018-09-02T20:32:31.116Z,46.50
2018-09-02T20:34:59.468Z,46.50
2018-09-02T20:37:27.939Z,46.70
2018-09-02T20:39:56.255Z,46.80
2018-09-02T20:42:24.716Z,46.70
2018-09-02T20:44:53.054Z,46.70
2018-09-02T20:47:21.393Z,46.80
2018-09-02T20:49:49.740Z,47.00
2018-09-02T20:52:18.063Z,47.40
2018-09-02T20:54:46.441Z,47.10
2018-09-02T20:57:14.862Z,47.00
2018-09-02T20:59:43.303Z,47.00
2018-09-02T21:02:11.955Z,47.00
2018-09-02T21:04:40.325Z,46.90
2018-09-02T21:07:08.815Z,46.90
2018-09-02T21:09:37.175Z,46.80
2018-09-02T21:12:05.645Z,47.80
2018-09-02T21:14:34.331Z,46.80
2018-09-02T21:17:02.757Z,46.70
2018-09-02T21:19:31.022Z,46.80
2018-09-02T21:21:59.798Z,46.90
2018-09-02T21:24:28.140Z,46.70
2018-09-02T21:26:56.576Z,47.10
2018-09-02T21:29:24.943Z,46.80
2018-09-02T21:31:53.256Z,47.00
2018-09-02T21:34:21.583Z,46.80
2018-09-02T21:36:49.975Z,46.90
2018-09-02T21:39:18.323Z,46.80
2018-09-02T21:41:46.620Z,47.00
2018-09-02T21:44:15.317Z,46.80
2018-09-02T21:46:43.637Z,46.80
2018-09-02T21:49:12.076Z,46.90
2018-09-02T21:51:40.524Z,46.80
2018-09-02T21:54:08.929Z,47.00
2018-09-02T21:56:37.314Z,46.80
2018-09-02T21:59:05.671Z,46.90
2018-09-02T22:01:34.001Z,47.00
2018-09-02T22:04:02.518Z,46.60
2018-09-02T22:06:30.901Z,46.90
2018-09-02T22:08:59.399Z,46.90
2018-09-02T22:11:27.714Z,46.90
2018-09-02T22:13:56.089Z,46.90
2018-09-02T22:16:24.439Z,46.90
2018-09-02T22:18:52.867Z,46.80
2018-09-02T22:21:21.167Z,46.90
2018-09-02T22:23:49.555Z,47.10
2018-09-02T22:26:18.087Z,47.40
2018-09-02T22:28:46.532Z,47.60
2018-09-02T22:31:14.842Z,47.40
2018-09-02T22:33:43.405Z,47.40
2018-09-02T22:36:11.823Z,47.90
2018-09-02T22:38:40.196Z,48.00
2018-09-02T22:41:08.592Z,48.20
2018-09-02T22:43:36.937Z,48.10
2018-09-02T22:46:05.304Z,48.30
2018-09-02T22:48:33.617Z,47.70
2018-09-02T22:51:01.938Z,48.20
2018-09-02T22:53:30.308Z,48.30
2018-09-02T22:55:58.639Z,48.00
2018-09-02T22:58:26.972Z,47.50
2018-09-02T23:00:55.309Z,48.00
2018-09-02T23:03:23.644Z,48.30
2018-09-02T23:05:52.040Z,48.10
2018-09-02T23:08:20.357Z,48.50
2018-09-02T23:10:48.699Z,48.20
2018-09-02T23:13:17.031Z,47.90
2018-09-02T23:15:45.515Z,48.30
2018-09-02T23:18:13.882Z,48.60
2018-09-02T23:20:42.253Z,48.40
2018-09-02T23:23:10.632Z,48.30
2018-09-02T23:25:39.012Z,48.50
2018-09-02T23:28:08.932Z,48.80
2018-09-02T23:30:37.327Z,48.60
2018-09-02T23:33:05.791Z,48.70
2018-09-02T23:35:34.148Z,48.70
2018-09-02T23:38:02.462Z,49.60
2018-09-02T23:40:30.796Z,49.80
2018-09-02T23:42:59.136Z,49.60
2018-09-02T23:45:27.547Z,49.50
2018-09-02T23:47:55.873Z,49.50
2018-09-02T23:50:24.184Z,49.80
2018-09-02T23:52:52.474Z,49.50
2018-09-02T23:55:20.842Z,49.40
2018-09-02T23:57:49.162Z,49.40
